createdAt,value
2023-03-26T00:01:30.055Z,44.08
2023-03-26T00:03:57.954Z,42.36
2023-03-26T00:06:30.876Z,42.43
2023-03-26T00:08:58.488Z,43.14
2023-03-26T00:11:28.651Z,44.41
2023-03-26T00:13:58.049Z,44.00
2023-03-26T00:16:28.041Z,42.76
2023-03-26T00:18:55.206Z,44.39
2023-03-26T00:21:28.115Z,43.21
2023-03-26T00:24:04.533Z,42.35
2023-03-26T00:26:33.613Z,43.30
2023-03-26T00:29:01.763Z,44.45
2023-03-26T00:31:28.560Z,43.61
2023-03-26T00:33:55.872Z,43.04
2023-03-26T00:36:25.885Z,43.39
2023-03-26T00:38:53.976Z,43.84
2023-03-26T00:41:25.565Z,44.09
2023-03-26T00:43:58.835Z,43.64
2023-03-26T00:46:27.601Z,43.17
2023-03-26T00:48:54.527Z,44.32
2023-03-26T00:51:21.863Z,45.09
2023-03-26T00:53:50.014Z,44.21
2023-03-26T00:56:17.853Z,45.07
2023-03-26T00:58:46.191Z,44.49
2023-03-26T01:01:16.469Z,45.34
2023-03-26T01:04:00.823Z,42.20
2023-03-26T01:06:36.014Z,44.32
2023-03-26T01:09:11.605Z,44.17
2023-03-26T01:11:38.289Z,40.86
2023-03-26T01:14:10.043Z,42.44
2023-03-26T01:16:45.176Z,44.95
2023-03-26T01:19:31.044Z,44.52
2023-03-26T01:21:59.106Z,43.82
2023-03-26T01:24:26.497Z,43.20
2023-03-26T01:27:05.277Z,44.85
2023-03-26T01:29:46.045Z,45.34
2023-03-26T01:32:51.815Z,44.07
2023-03-26T01:35:49.645Z,41.42
2023-03-26T01:38:16.366Z,45.28
2023-03-26T01:41:03.442Z,41.97
2023-03-26T01:43:54.184Z,45.63
2023-03-26T01:46:23.870Z,44.30
2023-03-26T01:48:51.355Z,45.35
2023-03-26T01:51:33.252Z,46.12
2023-03-26T01:54:04.221Z,42.50
2023-03-26T01:56:52.346Z,43.85
2023-03-26T01:59:22.148Z,43.97
2023-03-26T02:02:05.717Z,44.67
2023-03-26T02:04:56.500Z,46.24
2023-03-26T02:07:34.634Z,44.21
2023-03-26T02:10:10.420Z,45.19
2023-03-26T02:12:41.367Z,44.44
2023-03-26T02:15:08.851Z,44.47
2023-03-26T02:17:36.236Z,45.23
2023-03-26T02:20:10.066Z,45.74
2023-03-26T02:22:41.086Z,44.48
2023-03-26T02:25:12.167Z,45.07
2023-03-26T02:27:39.590Z,45.56
2023-03-26T02:30:16.449Z,45.19
2023-03-26T02:32:45.783Z,46.04
2023-03-26T02:35:14.149Z,45.78
2023-03-26T02:37:42.472Z,46.66
2023-03-26T02:40:16.131Z,44.17
2023-03-26T02:42:45.676Z,44.09
2023-03-26T02:45:12.677Z,42.94
2023-03-26T02:48:06.103Z,41.77
2023-03-26T02:50:54.819Z,42.27
2023-03-26T02:53:53.719Z,44.82
2023-03-26T02:56:39.065Z,42.43
2023-03-26T02:59:26.269Z,42.28
2023-03-26T03:02:16.816Z,44.67
2023-03-26T03:04:44.541Z,45.45
2023-03-26T03:07:14.582Z,46.63
2023-03-26T03:09:41.616Z,45.47
2023-03-26T03:12:46.110Z,44.77
2023-03-26T03:15:13.660Z,44.69
2023-03-26T03:17:41.547Z,45.29
2023-03-26T03:20:12.118Z,44.39
2023-03-26T03:22:40.762Z,46.07
2023-03-26T03:25:14.761Z,41.67
2023-03-26T03:27:43.130Z,40.55
2023-03-26T03:30:14.900Z,44.49
2023-03-26T03:32:47.735Z,46.29
2023-03-26T03:35:19.199Z,43.76
2023-03-26T03:37:49.517Z,45.13
2023-03-26T03:40:16.742Z,46.90
2023-03-26T03:42:45.043Z,42.91
2023-03-26T03:45:14.012Z,45.11
2023-03-26T03:47:44.309Z,42.81
2023-03-26T03:50:12.380Z,44.44
2023-03-26T03:52:48.162Z,47.42
2023-03-26T03:55:17.428Z,46.17
2023-03-26T03:57:51.565Z,46.80
2023-03-26T04:00:22.010Z,45.40
2023-03-26T04:03:06.266Z,48.14
2023-03-26T04:05:33.755Z,47.71
2023-03-26T04:08:00.713Z,53.20
2023-03-26T04:10:51.793Z,55.03
2023-03-26T04:13:30.760Z,52.58
2023-03-26T04:16:30.505Z,59.09
2023-03-26T04:18:59.271Z,57.21
2023-03-26T04:21:30.444Z,58.81
2023-03-26T04:23:57.475Z,56.11
2023-03-26T04:26:44.702Z,53.91
2023-03-26T04:29:18.266Z,52.27
2023-03-26T04:31:47.183Z,54.00
2023-03-26T04:34:25.676Z,53.32
2023-03-26T04:37:03.282Z,54.54
2023-03-26T04:39:34.227Z,58.82
2023-03-26T04:42:30.528Z,58.29
2023-03-26T04:45:22.560Z,57.59
2023-03-26T04:47:55.505Z,58.95
2023-03-26T04:50:22.583Z,57.57
2023-03-26T04:52:49.929Z,56.75
2023-03-26T04:55:53.518Z,56.12
2023-03-26T04:58:39.957Z,56.71
2023-03-26T05:01:10.522Z,57.82
2023-03-26T05:03:41.999Z,61.11
2023-03-26T05:06:13.929Z,58.93
2023-03-26T05:08:41.930Z,58.14
2023-03-26T05:11:13.264Z,54.30
2023-03-26T05:13:42.815Z,56.79
2023-03-26T05:16:12.146Z,54.55
2023-03-26T05:18:42.078Z,55.21
2023-03-26T05:21:09.488Z,53.15
2023-03-26T05:23:38.009Z,55.43
2023-03-26T05:26:19.534Z,56.72
2023-03-26T05:28:46.332Z,60.52
2023-03-26T05:31:33.605Z,56.00
2023-03-26T05:34:01.912Z,51.90
2023-03-26T05:36:29.216Z,56.80
2023-03-26T05:39:19.214Z,48.96
2023-03-26T05:42:04.481Z,52.51
2023-03-26T05:44:49.273Z,53.81
2023-03-26T05:47:22.856Z,53.12
2023-03-26T05:49:49.667Z,54.14
2023-03-26T05:52:19.050Z,50.47
2023-03-26T05:55:16.184Z,51.94
2023-03-26T05:58:01.854Z,53.97
2023-03-26T06:00:48.640Z,55.52
2023-03-26T06:03:23.185Z,55.80
2023-03-26T06:06:20.493Z,57.24
2023-03-26T06:09:00.885Z,57.33
2023-03-26T06:11:31.658Z,52.38
2023-03-26T06:13:59.572Z,53.90
2023-03-26T06:16:27.679Z,58.00
2023-03-26T06:19:04.349Z,53.90
2023-03-26T06:21:50.157Z,53.58
2023-03-26T06:24:22.890Z,53.93
2023-03-26T06:27:04.439Z,56.36
2023-03-26T06:29:49.122Z,58.45
2023-03-26T06:32:26.274Z,57.63
2023-03-26T06:35:11.924Z,54.73
2023-03-26T06:37:38.780Z,50.43
2023-03-26T06:40:07.351Z,51.11
2023-03-26T06:43:10.206Z,54.04
2023-03-26T06:45:51.798Z,54.35
2023-03-26T06:48:37.347Z,55.42
2023-03-26T06:51:22.837Z,53.51
2023-03-26T06:54:07.859Z,53.25
2023-03-26T06:56:55.626Z,54.71
2023-03-26T07:00:01.024Z,51.02
2023-03-26T07:02:46.976Z,57.44
2023-03-26T07:05:32.555Z,54.25
2023-03-26T07:08:19.724Z,52.37
2023-03-26T07:11:06.890Z,50.87
2023-03-26T07:13:52.592Z,52.00
2023-03-26T07:16:42.614Z,53.66
2023-03-26T07:19:27.970Z,47.98
2023-03-26T07:21:55.166Z,48.41
2023-03-26T07:24:48.367Z,48.55
2023-03-26T07:27:36.934Z,47.93
2023-03-26T07:30:20.503Z,47.02
2023-03-26T07:33:28.036Z,47.01
2023-03-26T07:36:34.261Z,47.83
2023-03-26T07:39:35.952Z,47.33
2023-03-26T07:42:39.868Z,50.72
2023-03-26T07:45:45.035Z,47.89
2023-03-26T07:48:25.603Z,49.06
2023-03-26T07:51:08.001Z,46.85
2023-03-26T07:54:13.589Z,50.12
2023-03-26T07:57:06.748Z,47.24
2023-03-26T08:00:12.217Z,50.82
2023-03-26T08:03:01.674Z,49.41
2023-03-26T08:06:14.638Z,47.18
2023-03-26T08:09:02.738Z,51.85
2023-03-26T08:12:03.797Z,54.90
2023-03-26T08:14:49.227Z,59.19
2023-03-26T08:17:30.965Z,54.14
2023-03-26T08:20:23.146Z,49.94
2023-03-26T08:23:09.410Z,50.43
2023-03-26T08:25:55.043Z,52.78
2023-03-26T08:28:58.883Z,53.60
2023-03-26T08:31:39.066Z,54.07
2023-03-26T08:34:06.498Z,50.94
2023-03-26T08:36:33.333Z,52.79
2023-03-26T08:39:00.365Z,49.76
2023-03-26T08:41:42.385Z,47.71
2023-03-26T08:44:09.753Z,50.98
2023-03-26T08:46:39.154Z,51.84
2023-03-26T08:49:37.935Z,50.45
2023-03-26T08:52:19.882Z,48.93
2023-03-26T08:55:27.585Z,47.17
2023-03-26T08:58:40.352Z,45.23
2023-03-26T09:01:25.679Z,43.78
2023-03-26T09:04:34.097Z,50.97
2023-03-26T09:07:16.321Z,47.91
2023-03-26T09:09:48.764Z,44.05
2023-03-26T09:12:44.484Z,47.56
2023-03-26T09:15:29.668Z,47.90
2023-03-26T09:17:58.028Z,46.51
2023-03-26T09:20:49.755Z,47.32
2023-03-26T09:23:25.364Z,45.46
2023-03-26T09:26:22.862Z,48.05
2023-03-26T09:29:07.789Z,46.67
2023-03-26T09:31:51.462Z,46.10
2023-03-26T09:34:49.990Z,49.31
2023-03-26T09:37:36.484Z,46.99
2023-03-26T09:41:06.613Z,46.40
2023-03-26T09:43:33.561Z,47.08
2023-03-26T09:46:23.112Z,46.79
2023-03-26T09:49:11.064Z,46.45
2023-03-26T09:51:44.033Z,48.92
2023-03-26T09:54:39.305Z,51.53
2023-03-26T09:57:09.436Z,49.31
2023-03-26T09:59:45.437Z,51.49
2023-03-26T10:02:46.323Z,50.61
2023-03-26T10:05:17.458Z,52.36
2023-03-26T10:08:15.331Z,53.70
2023-03-26T10:11:03.812Z,56.00
2023-03-26T10:13:51.580Z,55.46
2023-03-26T10:16:35.244Z,52.01
2023-03-26T10:19:20.316Z,53.95
2023-03-26T10:22:23.950Z,49.82
2023-03-26T10:25:15.090Z,55.96
2023-03-26T10:27:48.904Z,56.78
2023-03-26T10:30:19.263Z,54.53
2023-03-26T10:32:52.133Z,53.73
2023-03-26T10:35:26.555Z,57.23
2023-03-26T10:38:12.036Z,58.15
2023-03-26T10:41:09.832Z,60.19
2023-03-26T10:44:17.242Z,56.94
2023-03-26T10:46:49.092Z,57.68
2023-03-26T10:49:30.751Z,54.21
2023-03-26T10:52:01.031Z,54.97
2023-03-26T10:54:56.349Z,55.50
2023-03-26T10:57:32.240Z,55.11
2023-03-26T11:00:14.062Z,53.22
2023-03-26T11:02:51.975Z,59.54
2023-03-26T11:05:53.042Z,53.85
2023-03-26T11:08:34.652Z,54.52
2023-03-26T11:11:11.088Z,56.72
2023-03-26T11:13:55.650Z,53.51
2023-03-26T11:16:56.190Z,53.33
2023-03-26T11:19:41.409Z,52.83
2023-03-26T11:22:19.990Z,56.94
2023-03-26T11:24:46.617Z,54.14
2023-03-26T11:27:47.177Z,55.81
2023-03-26T11:30:35.609Z,50.94
2023-03-26T11:33:07.781Z,52.55
2023-03-26T11:35:44.004Z,52.20
2023-03-26T11:38:22.040Z,51.81
2023-03-26T11:40:52.588Z,51.38
2023-03-26T11:43:36.980Z,53.36
2023-03-26T11:46:10.285Z,52.27
2023-03-26T11:48:42.575Z,52.38
2023-03-26T11:51:18.964Z,52.96
2023-03-26T11:53:48.784Z,56.29
2023-03-26T11:56:31.086Z,54.03
2023-03-26T11:59:08.628Z,52.12
2023-03-26T12:01:58.000Z,56.27
2023-03-26T12:04:37.898Z,51.54
2023-03-26T12:07:07.463Z,54.30
2023-03-26T12:09:34.880Z,53.74
2023-03-26T12:12:04.648Z,55.25
2023-03-26T12:14:35.529Z,50.95
2023-03-26T12:17:31.555Z,51.19
2023-03-26T12:19:59.658Z,49.03
2023-03-26T12:22:38.193Z,49.73
2023-03-26T12:25:21.915Z,53.53
2023-03-26T12:28:13.927Z,53.13
2023-03-26T12:30:45.077Z,49.97
2023-03-26T12:33:30.122Z,52.38
2023-03-26T12:36:00.633Z,51.73
2023-03-26T12:38:34.282Z,56.63
2023-03-26T12:42:25.929Z,51.28
2023-03-26T12:44:50.126Z,51.58
2023-03-26T12:47:55.383Z,52.97
2023-03-26T12:50:14.547Z,54.71
2023-03-26T12:53:02.583Z,51.90
2023-03-26T12:55:51.184Z,54.05
2023-03-26T12:58:39.584Z,51.61
2023-03-26T13:01:25.017Z,53.90
2023-03-26T13:04:14.439Z,52.44
2023-03-26T13:06:59.997Z,50.30
2023-03-26T13:09:56.049Z,53.39
2023-03-26T13:12:55.285Z,51.88
2023-03-26T13:15:22.065Z,51.23
2023-03-26T13:17:51.993Z,50.17
2023-03-26T13:20:40.243Z,47.03
2023-03-26T13:23:26.801Z,48.27
2023-03-26T13:26:29.130Z,46.80
2023-03-26T13:28:56.237Z,47.25
2023-03-26T13:31:54.743Z,47.65
2023-03-26T13:34:27.794Z,48.79
2023-03-26T13:37:36.477Z,49.14
2023-03-26T13:40:15.303Z,50.28
2023-03-26T13:43:07.369Z,47.08
2023-03-26T13:45:42.531Z,48.75
2023-03-26T13:48:19.290Z,46.46
2023-03-26T13:50:57.223Z,47.65
2023-03-26T13:53:37.241Z,48.44
2023-03-26T13:56:06.331Z,48.59
2023-03-26T13:58:39.617Z,47.58
2023-03-26T14:01:10.088Z,47.17
2023-03-26T14:03:58.685Z,46.92
2023-03-26T14:06:42.064Z,47.49
2023-03-26T14:09:15.956Z,47.23
2023-03-26T14:11:57.939Z,46.65
2023-03-26T14:14:49.163Z,45.79
2023-03-26T14:17:41.265Z,45.67
2023-03-26T14:20:32.739Z,45.73
2023-03-26T14:23:21.036Z,45.06
2023-03-26T14:26:25.258Z,43.78
2023-03-26T14:29:29.554Z,46.05
2023-03-26T14:32:14.696Z,45.54
2023-03-26T14:35:12.177Z,45.63
2023-03-26T14:38:08.064Z,43.71
2023-03-26T14:40:58.102Z,41.71
2023-03-26T14:44:16.032Z,43.53
2023-03-26T14:47:04.885Z,44.00
2023-03-26T14:50:20.613Z,42.31
2023-03-26T14:52:51.822Z,44.26
2023-03-26T14:55:29.512Z,46.54
2023-03-26T14:58:22.164Z,46.67
2023-03-26T15:01:20.941Z,46.33
2023-03-26T15:04:29.755Z,44.02
2023-03-26T15:07:18.863Z,43.90
2023-03-26T15:09:51.782Z,44.84
2023-03-26T15:12:32.848Z,43.92
2023-03-26T15:15:02.345Z,44.06
2023-03-26T15:18:00.227Z,43.52
2023-03-26T15:20:45.110Z,43.27
2023-03-26T15:23:14.673Z,43.07
2023-03-26T15:26:02.904Z,42.92
2023-03-26T15:28:54.508Z,45.04
2023-03-26T15:31:42.659Z,44.13
2023-03-26T15:34:40.064Z,43.51
2023-03-26T15:37:19.487Z,45.32
2023-03-26T15:39:59.690Z,45.99
2023-03-26T15:42:42.120Z,42.83
2023-03-26T15:45:37.236Z,45.99
2023-03-26T15:48:13.354Z,43.86
2023-03-26T15:50:56.264Z,45.56
2023-03-26T15:53:48.070Z,43.96
2023-03-26T15:56:17.848Z,46.32
2023-03-26T15:58:55.298Z,45.56
2023-03-26T16:01:36.481Z,45.66
2023-03-26T16:04:26.602Z,46.46
2023-03-26T16:07:14.378Z,47.04
2023-03-26T16:10:09.681Z,46.20
2023-03-26T16:12:46.795Z,47.64
2023-03-26T16:15:23.091Z,46.66
2023-03-26T16:18:10.284Z,47.89
2023-03-26T16:20:51.388Z,47.77
2023-03-26T16:23:30.473Z,48.01
2023-03-26T16:25:59.248Z,47.00
2023-03-26T16:28:56.659Z,47.20
2023-03-26T16:31:38.151Z,45.19
2023-03-26T16:34:07.941Z,47.11
2023-03-26T16:36:37.830Z,46.69
2023-03-26T16:39:05.020Z,46.97
2023-03-26T16:41:34.819Z,46.08
2023-03-26T16:44:26.047Z,46.68
2023-03-26T16:47:14.562Z,45.02
2023-03-26T16:50:10.721Z,48.75
2023-03-26T16:52:59.156Z,48.74
2023-03-26T16:55:41.575Z,47.43
2023-03-26T16:58:11.928Z,48.55
2023-03-26T17:00:41.907Z,46.28
2023-03-26T17:03:17.102Z,47.35
2023-03-26T17:05:56.667Z,46.34
2023-03-26T17:08:53.416Z,44.85
2023-03-26T17:11:23.341Z,45.36
2023-03-26T17:14:08.706Z,44.51
2023-03-26T17:16:46.128Z,45.54
2023-03-26T17:19:29.669Z,49.05
2023-03-26T17:22:11.547Z,48.18
2023-03-26T17:24:59.895Z,48.55
2023-03-26T17:28:27.674Z,47.80
2023-03-26T17:31:16.370Z,50.73
2023-03-26T17:33:43.540Z,50.15
2023-03-26T17:36:13.254Z,51.81
2023-03-26T17:38:58.848Z,50.30
2023-03-26T17:42:13.561Z,50.73
2023-03-26T17:44:49.077Z,49.96
2023-03-26T17:47:23.756Z,51.59
2023-03-26T17:49:58.308Z,51.37
2023-03-26T17:52:41.823Z,51.97
2023-03-26T17:55:14.363Z,52.15
2023-03-26T17:57:44.415Z,51.71
2023-03-26T18:00:28.724Z,56.28
2023-03-26T18:03:12.842Z,56.62
2023-03-26T18:05:40.493Z,54.07
2023-03-26T18:08:40.050Z,54.74
2023-03-26T18:11:09.800Z,59.43
2023-03-26T18:13:58.543Z,56.52
2023-03-26T18:16:28.469Z,57.39
2023-03-26T18:19:00.151Z,56.32
2023-03-26T18:21:37.945Z,54.10
2023-03-26T18:24:07.753Z,54.32
2023-03-26T18:26:52.797Z,56.42
2023-03-26T18:29:26.348Z,53.96
2023-03-26T18:32:00.731Z,55.86
2023-03-26T18:34:31.822Z,58.83
2023-03-26T18:37:17.830Z,56.06
2023-03-26T18:39:59.178Z,55.47
2023-03-26T18:42:28.502Z,56.72
2023-03-26T18:45:00.036Z,57.46
2023-03-26T18:47:30.555Z,53.93
2023-03-26T18:49:58.706Z,58.46
2023-03-26T18:52:31.852Z,54.37
2023-03-26T18:54:59.602Z,56.90
2023-03-26T18:57:28.920Z,55.68
2023-03-26T19:00:09.929Z,54.93
2023-03-26T19:02:39.601Z,56.45
2023-03-26T19:05:08.220Z,58.79
2023-03-26T19:07:36.006Z,56.93
2023-03-26T19:10:03.278Z,56.49
2023-03-26T19:12:36.634Z,51.71
2023-03-26T19:15:03.887Z,56.11
2023-03-26T19:17:34.704Z,56.64
2023-03-26T19:20:01.901Z,56.40
2023-03-26T19:22:30.665Z,54.94
2023-03-26T19:25:02.099Z,55.05
2023-03-26T19:27:29.530Z,56.36
2023-03-26T19:29:57.442Z,54.97
2023-03-26T19:32:33.044Z,56.06
2023-03-26T19:35:02.057Z,54.25
2023-03-26T19:37:30.726Z,54.84
2023-03-26T19:40:06.401Z,53.43
2023-03-26T19:42:42.845Z,56.53
2023-03-26T19:45:23.298Z,52.07
2023-03-26T19:48:03.495Z,56.58
2023-03-26T19:50:34.470Z,53.11
2023-03-26T19:53:16.009Z,54.49
2023-03-26T19:55:55.616Z,55.48
2023-03-26T19:58:24.313Z,54.29
2023-03-26T20:00:51.034Z,55.87
2023-03-26T20:03:24.445Z,55.16
2023-03-26T20:05:51.947Z,54.30
2023-03-26T20:08:19.957Z,54.16
2023-03-26T20:10:46.873Z,53.13
2023-03-26T20:13:17.355Z,50.47
2023-03-26T20:16:23.451Z,54.84
2023-03-26T20:18:50.847Z,52.43
2023-03-26T20:21:18.541Z,52.18
2023-03-26T20:23:45.303Z,53.29
2023-03-26T20:26:14.119Z,53.46
2023-03-26T20:28:47.856Z,51.85
2023-03-26T20:31:21.988Z,52.21
2023-03-26T20:33:50.782Z,50.46
2023-03-26T20:36:33.802Z,50.67
2023-03-26T20:39:08.420Z,51.58
2023-03-26T20:41:39.663Z,50.11
2023-03-26T20:44:13.921Z,51.90
2023-03-26T20:46:43.140Z,50.67
2023-03-26T20:49:11.191Z,49.68
2023-03-26T20:51:39.500Z,49.41
2023-03-26T20:54:09.725Z,49.59
2023-03-26T20:56:37.780Z,49.75
2023-03-26T20:59:10.972Z,50.21
2023-03-26T21:01:38.872Z,49.46
2023-03-26T21:04:06.907Z,50.30
2023-03-26T21:06:33.765Z,51.48
2023-03-26T21:09:00.994Z,49.56
2023-03-26T21:11:52.098Z,50.99
2023-03-26T21:14:41.910Z,50.05
2023-03-26T21:17:20.680Z,48.97
2023-03-26T21:19:48.204Z,49.94
2023-03-26T21:22:33.542Z,49.37
2023-03-26T21:25:15.348Z,50.29
2023-03-26T21:28:00.955Z,51.61
2023-03-26T21:30:28.361Z,49.86
2023-03-26T21:32:56.163Z,49.61
2023-03-26T21:35:23.430Z,47.27
2023-03-26T21:37:51.063Z,48.54
2023-03-26T21:40:19.089Z,47.06
2023-03-26T21:42:51.074Z,47.88
2023-03-26T21:45:19.388Z,48.31
2023-03-26T21:47:46.657Z,49.92
2023-03-26T21:50:17.294Z,49.01
2023-03-26T21:52:48.501Z,49.67
2023-03-26T21:55:18.656Z,48.98
2023-03-26T21:57:51.646Z,48.84
2023-03-26T22:00:19.318Z,48.93
2023-03-26T22:03:03.573Z,48.75
2023-03-26T22:05:49.114Z,47.40
2023-03-26T22:08:38.871Z,47.73
2023-03-26T22:11:07.217Z,49.33
2023-03-26T22:13:38.717Z,49.33
2023-03-26T22:16:07.284Z,50.57
2023-03-26T22:18:35.342Z,48.25
2023-03-26T22:21:02.190Z,50.01
2023-03-26T22:23:36.009Z,49.47
2023-03-26T22:26:04.392Z,48.29
2023-03-26T22:28:31.584Z,49.61
2023-03-26T22:30:59.223Z,49.36
2023-03-26T22:33:26.830Z,50.15
2023-03-26T22:35:55.910Z,49.50
2023-03-26T22:38:23.085Z,50.89
2023-03-26T22:40:58.005Z,47.41
2023-03-26T22:43:24.967Z,50.13
2023-03-26T22:45:54.257Z,50.22
2023-03-26T22:48:23.468Z,50.46
2023-03-26T22:51:05.727Z,51.34
2023-03-26T22:53:32.568Z,49.39
2023-03-26T22:56:00.242Z,50.01
2023-03-26T22:58:28.217Z,49.67
2023-03-26T23:01:08.383Z,51.61
2023-03-26T23:03:36.880Z,49.45
2023-03-26T23:06:06.942Z,51.01
2023-03-26T23:08:35.209Z,50.78
2023-03-26T23:11:02.176Z,51.66
2023-03-26T23:13:29.168Z,47.95
2023-03-26T23:15:57.159Z,51.47
2023-03-26T23:18:24.433Z,50.91
2023-03-26T23:20:55.935Z,51.09
2023-03-26T23:23:28.232Z,50.47
2023-03-26T23:25:58.683Z,49.77
2023-03-26T23:28:26.953Z,49.48
2023-03-26T23:30:54.915Z,48.93
2023-03-26T23:33:25.653Z,49.46
2023-03-26T23:35:57.924Z,48.83
2023-03-26T23:38:27.967Z,48.58
2023-03-26T23:41:10.487Z,50.43
2023-03-26T23:43:39.695Z,49.00
2023-03-26T23:46:24.124Z,49.99
2023-03-26T23:48:51.940Z,51.75
2023-03-26T23:51:22.475Z,51.02
2023-03-26T23:53:49.681Z,49.50
2023-03-26T23:56:17.485Z,51.19
2023-03-26T23:58:44.682Z,50.29
